createdAt,value
2019-03-30T00:02:03.890Z,87.90
2019-03-30T00:04:36.058Z,84.77
2019-03-30T00:07:09.964Z,84.17
2019-03-30T00:10:09.778Z,81.77
2019-03-30T00:12:40.294Z,82.13
2019-03-30T00:15:11.861Z,81.00
2019-03-30T00:17:43.499Z,83.67
2019-03-30T00:20:16.090Z,77.57
2019-03-30T00:22:47.524Z,78.83
2019-03-30T00:25:19.823Z,75.17
2019-03-30T00:27:55.574Z,73.17
2019-03-30T00:30:38.605Z,85.27
2019-03-30T00:33:23.737Z,81.50
2019-03-30T00:35:54.590Z,81.33
2019-03-30T00:38:35.064Z,84.70
2019-03-30T00:41:19.622Z,76.33
2019-03-30T00:43:58.122Z,76.83
2019-03-30T00:49:48.983Z,73.80
2019-03-30T00:52:19.393Z,69.07
2019-03-30T00:54:51.557Z,70.47
2019-03-30T00:57:24.739Z,71.47
2019-03-30T00:59:55.866Z,70.03
2019-03-30T01:02:28.976Z,69.23
2019-03-30T01:05:01.022Z,70.63
2019-03-30T01:07:33.790Z,68.13
2019-03-30T01:10:04.448Z,69.40
2019-03-30T01:12:53.179Z,69.03
2019-03-30T01:15:25.991Z,67.53
2019-03-30T01:17:57.151Z,70.77
2019-03-30T01:20:32.970Z,66.70
2019-03-30T01:23:04.835Z,66.67
2019-03-30T01:25:38.849Z,62.20
2019-03-30T01:28:11.114Z,64.87
2019-03-30T01:30:42.872Z,59.40
2019-03-30T01:33:14.509Z,62.73
2019-03-30T01:38:36.568Z,63.47
2019-03-30T01:41:07.109Z,67.17
2019-03-30T01:43:38.436Z,62.43
2019-03-30T01:46:10.298Z,62.37
2019-03-30T01:48:41.868Z,62.00
2019-03-30T01:51:12.899Z,60.33
2019-03-30T01:53:43.847Z,61.13
2019-03-30T01:56:14.870Z,59.00
2019-03-30T01:58:46.648Z,59.50
2019-03-30T02:01:18.690Z,54.87
2019-03-30T02:03:52.488Z,56.60
2019-03-30T02:06:24.859Z,56.73
2019-03-30T02:08:56.941Z,51.20
2019-03-30T02:11:29.116Z,52.97
2019-03-30T02:14:03.178Z,53.00
2019-03-30T02:16:36.127Z,49.23
2019-03-30T02:19:07.547Z,54.77
2019-03-30T02:21:37.886Z,50.90
2019-03-30T02:24:08.600Z,55.80
2019-03-30T02:26:39.151Z,53.53
2019-03-30T02:29:11.619Z,51.20
2019-03-30T02:31:42.642Z,51.30
2019-03-30T02:34:13.710Z,50.80
2019-03-30T02:36:44.041Z,49.67
2019-03-30T02:39:15.770Z,49.63
2019-03-30T02:41:46.495Z,55.13
2019-03-30T02:44:20.937Z,54.53
2019-03-30T02:46:51.676Z,51.00
2019-03-30T02:49:23.020Z,48.40
2019-03-30T02:51:53.451Z,55.53
2019-03-30T02:54:24.790Z,52.40
2019-03-30T02:56:55.706Z,53.20
2019-03-30T02:59:26.213Z,54.60
2019-03-30T03:01:57.108Z,55.47
2019-03-30T03:04:27.920Z,57.73
2019-03-30T03:06:58.230Z,52.57
2019-03-30T03:09:28.883Z,56.17
2019-03-30T03:12:00.947Z,52.00
2019-03-30T03:14:33.099Z,47.87
2019-03-30T03:17:04.031Z,54.90
2019-03-30T03:19:34.768Z,56.57
2019-03-30T03:22:05.311Z,53.20
2019-03-30T03:24:37.880Z,53.10
2019-03-30T03:27:08.401Z,55.70
2019-03-30T03:29:43.318Z,53.30
2019-03-30T03:32:11.344Z,56.63
2019-03-30T03:34:49.617Z,53.20
2019-03-30T03:37:22.161Z,56.77
2019-03-30T03:39:56.194Z,55.83
2019-03-30T03:42:29.808Z,56.23
2019-03-30T03:45:00.702Z,58.93
2019-03-30T03:47:32.915Z,56.87
2019-03-30T03:50:04.562Z,54.17
2019-03-30T03:52:35.919Z,56.87
2019-03-30T03:55:07.764Z,46.43
2019-03-30T03:57:40.679Z,48.43
2019-03-30T04:00:11.917Z,52.27
2019-03-30T04:02:42.836Z,54.00
2019-03-30T04:05:15.020Z,55.90
2019-03-30T04:07:47.593Z,55.13
2019-03-30T04:10:19.873Z,46.60
2019-03-30T04:12:51.726Z,48.00
2019-03-30T04:15:26.851Z,52.97
2019-03-30T04:17:58.610Z,57.63
2019-03-30T04:20:29.958Z,60.60
2019-03-30T04:23:06.846Z,59.57
2019-03-30T04:25:37.883Z,57.47
2019-03-30T04:28:08.904Z,53.63
2019-03-30T04:30:40.893Z,57.43
2019-03-30T04:33:12.011Z,62.97
2019-03-30T04:35:53.079Z,57.50
2019-03-30T04:38:24.870Z,52.87
2019-03-30T04:40:57.516Z,60.73
2019-03-30T04:43:29.403Z,63.37
2019-03-30T04:46:00.137Z,58.77
2019-03-30T04:48:31.579Z,63.17
2019-03-30T04:51:02.097Z,69.90
2019-03-30T04:53:34.981Z,69.23
2019-03-30T04:56:06.020Z,66.33
2019-03-30T04:58:36.861Z,67.70
2019-03-30T05:01:07.902Z,71.53
2019-03-30T05:03:43.041Z,74.17
2019-03-30T05:06:17.035Z,93.27
2019-03-30T05:08:50.840Z,136.03
2019-03-30T05:11:21.801Z,115.57
2019-03-30T05:13:52.544Z,85.87
2019-03-30T05:16:23.971Z,98.40
2019-03-30T05:18:55.541Z,106.17
2019-03-30T05:21:26.566Z,86.30
2019-03-30T05:23:57.506Z,85.03
2019-03-30T05:26:31.154Z,88.27
2019-03-30T05:29:06.351Z,89.97
2019-03-30T05:31:41.591Z,85.53
2019-03-30T05:34:44.889Z,75.83
2019-03-30T05:37:37.414Z,71.23
2019-03-30T05:44:18.156Z,62.70
2019-03-30T05:47:04.820Z,65.53
2019-03-30T05:49:40.234Z,66.47
2019-03-30T05:52:25.919Z,65.37
2019-03-30T06:23:22.807Z,51.80
2019-03-30T06:25:53.710Z,47.63
2019-03-30T06:28:24.363Z,51.53
2019-03-30T06:30:54.964Z,46.13
2019-03-30T06:33:25.490Z,49.90
2019-03-30T06:35:58.912Z,48.70
2019-03-30T06:38:32.812Z,51.30
2019-03-30T06:41:04.767Z,50.23
2019-03-30T06:43:35.397Z,55.90
2019-03-30T06:46:05.931Z,58.10
2019-03-30T06:48:36.880Z,56.30
2019-03-30T06:51:06.889Z,64.17
2019-03-30T06:53:38.428Z,63.70
2019-03-30T06:56:08.879Z,60.97
2019-03-30T06:58:39.490Z,58.90
2019-03-30T07:01:12.284Z,60.73
2019-03-30T07:03:43.106Z,55.07
2019-03-30T07:06:13.754Z,55.33
2019-03-30T07:08:44.665Z,54.90
2019-03-30T07:11:21.246Z,55.87
2019-03-30T07:13:48.504Z,58.23
2019-03-30T07:16:19.351Z,58.30
2019-03-30T07:18:49.867Z,51.73
2019-03-30T07:21:20.627Z,55.87
2019-03-30T07:23:51.540Z,56.87
2019-03-30T07:26:22.505Z,58.03
2019-03-30T07:28:53.818Z,59.07
2019-03-30T07:31:24.249Z,54.80
2019-03-30T07:33:54.764Z,58.83
2019-03-30T07:36:25.217Z,60.73
2019-03-30T07:38:55.728Z,59.83
2019-03-30T07:41:26.579Z,56.63
2019-03-30T07:43:56.888Z,55.33
2019-03-30T07:46:31.202Z,56.73
2019-03-30T07:49:02.054Z,55.07
2019-03-30T07:51:33.632Z,54.70
2019-03-30T07:54:05.921Z,52.40
2019-03-30T07:56:40.505Z,54.73
2019-03-30T07:59:10.938Z,52.57
2019-03-30T08:01:42.679Z,51.13
2019-03-30T08:04:13.933Z,50.67
2019-03-30T08:06:47.531Z,50.93
2019-03-30T08:09:18.370Z,53.57
2019-03-30T08:11:49.567Z,50.73
2019-03-30T08:14:20.639Z,49.50
2019-03-30T08:16:57.529Z,48.27
2019-03-30T08:19:30.929Z,49.60
2019-03-30T08:22:01.861Z,46.47
2019-03-30T08:27:46.026Z,46.17
2019-03-30T08:30:16.963Z,46.83
2019-03-30T08:32:56.009Z,45.70
2019-03-30T08:35:35.940Z,46.80
2019-03-30T08:38:06.888Z,46.90
2019-03-30T08:40:37.310Z,42.27
2019-03-30T08:43:08.538Z,42.53
2019-03-30T08:45:39.167Z,43.83
2019-03-30T08:48:10.127Z,44.17
2019-03-30T08:50:41.371Z,43.53
2019-03-30T08:53:12.631Z,40.00
2019-03-30T08:55:43.855Z,41.77
2019-03-30T08:58:15.416Z,42.60
2019-03-30T09:00:47.057Z,42.90
2019-03-30T09:03:18.926Z,43.10
2019-03-30T09:05:50.268Z,46.47
2019-03-30T09:08:22.737Z,42.53
2019-03-30T09:10:56.651Z,40.73
2019-03-30T09:13:28.297Z,47.47
2019-03-30T09:16:00.075Z,41.43
2019-03-30T09:18:34.064Z,39.17
2019-03-30T09:21:05.531Z,37.77
2019-03-30T09:23:37.385Z,35.17
2019-03-30T10:23:40.051Z,27.87
2019-03-30T10:26:13.020Z,28.67
2019-03-30T10:28:47.050Z,26.67
2019-03-30T10:31:18.086Z,28.30
2019-03-30T10:33:51.168Z,29.60
2019-03-30T10:36:37.569Z,27.40
2019-03-30T10:39:09.322Z,28.77
2019-03-30T10:41:41.058Z,27.73
2019-03-30T10:44:12.920Z,29.20
2019-03-30T10:46:48.889Z,30.23
2019-03-30T10:49:22.088Z,30.17
2019-03-30T10:51:54.481Z,27.77
2019-03-30T10:54:26.928Z,27.13
2019-03-30T10:56:59.208Z,28.40
2019-03-30T10:59:30.768Z,27.03
2019-03-30T11:02:02.530Z,26.07
2019-03-30T11:04:37.645Z,26.80
2019-03-30T11:07:07.968Z,27.53
2019-03-30T11:09:41.088Z,27.50
2019-03-30T11:12:12.928Z,26.23
2019-03-30T11:14:48.461Z,26.13
2019-03-30T11:17:20.940Z,27.00
2019-03-30T11:19:53.502Z,26.97
2019-03-30T11:22:24.860Z,27.30
2019-03-30T11:25:07.431Z,25.20
2019-03-30T11:27:30.421Z,26.17
2019-03-30T11:30:47.540Z,26.20
2019-03-30T11:33:49.499Z,27.40
2019-03-30T11:36:54.943Z,29.20
2019-03-30T11:39:42.984Z,27.73
2019-03-30T11:42:22.931Z,34.93
2019-03-30T11:45:07.921Z,28.60
2019-03-30T11:47:52.680Z,27.60
2019-03-30T11:50:26.781Z,27.90
2019-03-30T11:53:05.712Z,27.47
2019-03-30T11:55:53.341Z,29.87
2019-03-30T11:58:43.511Z,27.53
2019-03-30T12:01:34.149Z,29.20
2019-03-30T12:04:12.417Z,26.67
2019-03-30T12:06:58.534Z,25.87
2019-03-30T12:09:29.783Z,28.10
2019-03-30T12:12:00.310Z,27.20
2019-03-30T12:14:31.453Z,25.23
2019-03-30T12:17:02.574Z,25.20
2019-03-30T12:19:32.902Z,23.37
2019-03-30T12:22:03.952Z,21.00
2019-03-30T12:24:36.619Z,21.57
2019-03-30T12:27:07.874Z,20.53
2019-03-30T12:29:40.077Z,24.17
2019-03-30T12:32:10.759Z,23.03
2019-03-30T12:34:41.312Z,21.47
2019-03-30T12:37:12.351Z,21.73
2019-03-30T12:39:43.701Z,21.43
2019-03-30T12:42:14.731Z,20.67
2019-03-30T12:44:45.252Z,18.80
2019-03-30T12:47:16.704Z,18.50
2019-03-30T12:49:47.555Z,19.70
2019-03-30T12:52:18.889Z,19.63
2019-03-30T12:54:49.940Z,20.33
2019-03-30T12:57:20.968Z,19.17
2019-03-30T12:59:51.714Z,19.80
2019-03-30T13:02:22.347Z,19.23
2019-03-30T13:04:53.381Z,18.40
2019-03-30T13:07:24.524Z,19.03
2019-03-30T13:09:55.590Z,20.70
2019-03-30T13:12:26.695Z,19.70
2019-03-30T13:14:57.472Z,21.00
2019-03-30T13:17:28.794Z,15.90
2019-03-30T13:19:59.315Z,16.13
2019-03-30T13:22:30.163Z,16.33
2019-03-30T13:25:01.303Z,17.20
2019-03-30T13:27:32.648Z,19.10
2019-03-30T13:30:04.020Z,19.97
2019-03-30T13:32:35.366Z,15.03
2019-03-30T13:35:06.483Z,19.33
2019-03-30T13:37:37.621Z,15.20
2019-03-30T13:40:08.378Z,15.83
2019-03-30T13:42:39.420Z,16.73
2019-03-30T13:45:10.325Z,17.70
2019-03-30T13:47:41.794Z,16.23
2019-03-30T13:50:16.402Z,14.90
2019-03-30T13:52:47.555Z,14.17
2019-03-30T13:55:18.476Z,14.93
2019-03-30T13:57:49.352Z,15.90
2019-03-30T14:00:20.568Z,13.60
2019-03-30T14:02:51.299Z,13.80
2019-03-30T14:05:22.538Z,14.17
2019-03-30T14:07:54.805Z,13.67
2019-03-30T14:10:25.981Z,12.53
2019-03-30T14:12:57.527Z,12.20
2019-03-30T14:15:29.074Z,13.47
2019-03-30T14:18:00.933Z,13.17
2019-03-30T14:20:32.801Z,14.20
2019-03-30T14:23:03.535Z,14.33
2019-03-30T14:25:35.265Z,14.23
2019-03-30T14:28:06.347Z,12.83
2019-03-30T14:30:37.762Z,15.13
2019-03-30T14:33:09.517Z,14.77
2019-03-30T14:35:43.652Z,13.93
2019-03-30T14:38:13.878Z,12.67
2019-03-30T14:40:44.780Z,13.07
2019-03-30T14:43:15.945Z,13.10
2019-03-30T14:45:47.923Z,13.30
2019-03-30T14:48:19.786Z,12.33
2019-03-30T14:50:51.722Z,13.10
2019-03-30T14:53:22.945Z,15.43
2019-03-30T14:55:54.928Z,13.23
2019-03-30T14:58:25.910Z,13.07
2019-03-30T15:01:03.323Z,13.50
2019-03-30T15:03:37.804Z,12.47
2019-03-30T15:06:09.162Z,12.97
2019-03-30T15:08:41.017Z,13.87
2019-03-30T15:11:12.637Z,12.93
2019-03-30T15:13:44.160Z,13.67
2019-03-30T15:16:15.974Z,12.63
2019-03-30T15:18:50.580Z,11.83
2019-03-30T15:21:25.391Z,12.03
2019-03-30T15:23:56.886Z,12.37
2019-03-30T15:26:29.667Z,12.30
2019-03-30T15:29:03.439Z,12.57
2019-03-30T15:31:35.932Z,12.00
2019-03-30T15:34:07.892Z,12.63
2019-03-30T15:36:44.557Z,12.67
2019-03-30T15:39:29.332Z,11.00
2019-03-30T15:42:26.977Z,10.90
2019-03-30T15:56:14.882Z,12.13
2019-03-30T16:02:45.139Z,11.33
2019-03-30T16:05:22.631Z,11.50
2019-03-30T16:08:01.534Z,12.70
2019-03-30T16:10:34.156Z,12.23
2019-03-30T16:13:06.900Z,12.67
2019-03-30T16:15:38.886Z,12.77
2019-03-30T16:18:10.927Z,12.20
2019-03-30T16:20:42.478Z,14.10
2019-03-30T16:23:13.936Z,12.60
2019-03-30T16:25:44.906Z,13.60
2019-03-30T16:28:16.307Z,12.67
2019-03-30T16:30:46.742Z,13.67
2019-03-30T16:33:17.377Z,21.43
2019-03-30T16:35:47.803Z,19.40
2019-03-30T16:38:18.833Z,16.43
2019-03-30T16:40:50.398Z,18.17
2019-03-30T16:43:23.086Z,18.33
2019-03-30T16:45:54.007Z,18.70
2019-03-30T16:48:26.707Z,19.00
2019-03-30T16:51:01.532Z,16.87
2019-03-30T16:53:32.876Z,15.43
2019-03-30T16:56:04.947Z,17.77
2019-03-30T16:58:36.169Z,17.47
2019-03-30T17:01:07.020Z,19.03
2019-03-30T17:03:38.990Z,21.13
2019-03-30T17:06:10.624Z,21.73
2019-03-30T17:08:41.884Z,28.43
2019-03-30T17:11:15.595Z,45.67
2019-03-30T17:13:47.444Z,36.17
2019-03-30T17:16:19.913Z,30.27
2019-03-30T17:18:51.989Z,29.53
2019-03-30T17:21:23.969Z,28.53
2019-03-30T17:41:18.852Z,49.77
2019-03-30T17:43:51.970Z,46.73
2019-03-30T17:46:24.303Z,43.77
2019-03-30T17:48:59.193Z,43.23
2019-03-30T17:51:41.585Z,44.57
2019-03-30T17:54:14.009Z,38.37
2019-03-30T17:56:49.155Z,38.10
2019-03-30T17:59:35.972Z,36.47
2019-03-30T18:02:16.940Z,37.90
2019-03-30T18:04:53.110Z,41.20
2019-03-30T18:07:27.016Z,37.03
2019-03-30T18:10:03.535Z,43.07
2019-03-30T18:12:36.667Z,44.60
2019-03-30T18:15:10.390Z,47.60
2019-03-30T18:17:49.721Z,43.23
2019-03-30T18:20:23.805Z,56.23
2019-03-30T18:23:00.992Z,56.53
2019-03-30T18:25:36.129Z,52.33
2019-03-30T18:28:26.506Z,57.50
2019-03-30T18:30:56.038Z,59.47
2019-03-30T18:33:31.490Z,64.27
2019-03-30T18:36:08.470Z,69.53
2019-03-30T18:38:46.353Z,67.60
2019-03-30T18:41:44.131Z,67.73
2019-03-30T18:44:18.659Z,72.43
2019-03-30T18:47:01.867Z,73.60
2019-03-30T18:49:35.059Z,72.80
2019-03-30T18:52:17.049Z,67.90
2019-03-30T18:54:53.848Z,68.87
2019-03-30T18:57:32.161Z,69.97
2019-03-30T19:00:15.791Z,72.73
2019-03-30T19:02:57.709Z,72.90
2019-03-30T19:05:34.880Z,69.87
2019-03-30T19:08:16.667Z,72.20
2019-03-30T19:10:57.283Z,66.60
2019-03-30T19:13:31.130Z,71.90
2019-03-30T19:16:14.046Z,68.90
2019-03-30T19:18:47.549Z,62.77
2019-03-30T19:21:19.908Z,47.70
2019-03-30T19:23:53.703Z,49.67
2019-03-30T19:26:26.603Z,49.63
2019-03-30T19:29:02.857Z,46.73
2019-03-30T19:31:47.027Z,44.03
2019-03-30T19:34:20.502Z,40.47
2019-03-30T19:36:54.830Z,40.83
2019-03-30T19:39:27.423Z,43.83
2019-03-30T19:42:04.159Z,42.63
2019-03-30T19:44:43.828Z,44.67
2019-03-30T19:47:18.385Z,47.33
2019-03-30T19:49:53.576Z,44.87
2019-03-30T19:52:39.968Z,47.70
2019-03-30T19:55:10.914Z,38.97
2019-03-30T19:57:52.710Z,45.57
2019-03-30T20:00:39.220Z,46.43
2019-03-30T20:03:16.300Z,45.63
2019-03-30T20:05:54.596Z,46.50
2019-03-30T20:08:31.103Z,49.23
2019-03-30T20:11:04.054Z,49.70
2019-03-30T20:13:41.475Z,47.93
2019-03-30T20:16:19.887Z,50.60
2019-03-30T20:19:10.886Z,48.70
2019-03-30T20:21:36.403Z,45.03
2019-03-30T20:24:52.946Z,46.00
2019-03-30T20:27:53.136Z,41.90
2019-03-30T20:30:30.599Z,46.80
2019-03-30T20:33:23.875Z,44.37
2019-03-30T20:36:05.045Z,43.03
2019-03-30T20:38:46.525Z,44.33
2019-03-30T20:41:28.946Z,40.67
2019-03-30T20:44:06.022Z,38.43
2019-03-30T20:46:43.811Z,39.50
2019-03-30T20:49:18.745Z,39.57
2019-03-30T20:51:54.905Z,45.20
2019-03-30T20:54:36.516Z,47.60
2019-03-30T20:57:30.946Z,44.50
2019-03-30T21:00:33.184Z,44.97
2019-03-30T21:03:33.785Z,46.93
2019-03-30T21:06:25.422Z,48.17
2019-03-30T21:09:07.742Z,49.77
2019-03-30T21:12:24.249Z,50.43
2019-03-30T21:14:59.082Z,51.33
2019-03-30T21:17:36.069Z,47.83
2019-03-30T21:20:41.485Z,47.90
2019-03-30T21:23:20.197Z,47.97
2019-03-30T21:26:11.830Z,42.03
2019-03-30T21:28:57.498Z,43.03
2019-03-30T21:31:49.037Z,44.93
2019-03-30T21:34:30.858Z,44.03
2019-03-30T21:37:28.791Z,43.87
2019-03-30T21:40:17.894Z,43.10
2019-03-30T21:43:19.893Z,42.87
2019-03-30T21:46:27.739Z,39.10
2019-03-30T21:49:15.767Z,40.00
2019-03-30T21:52:33.001Z,39.97
2019-03-30T21:59:15.201Z,38.10
2019-03-30T22:02:03.481Z,35.90
2019-03-30T22:07:45.000Z,37.37
2019-03-30T22:10:37.911Z,32.77
2019-03-30T22:13:23.104Z,34.50
2019-03-30T22:16:25.055Z,37.60
2019-03-30T22:19:16.061Z,33.37
2019-03-30T22:22:01.165Z,36.17
2019-03-30T22:24:37.921Z,33.37
2019-03-30T22:27:13.067Z,32.90
2019-03-30T22:29:59.361Z,38.03
2019-03-30T22:33:00.009Z,36.13
2019-03-30T22:35:34.319Z,36.43
2019-03-30T22:38:06.881Z,39.67
2019-03-30T22:40:41.471Z,33.83
2019-03-30T22:43:11.945Z,34.17
2019-03-30T22:45:44.533Z,37.33
2019-03-30T22:48:16.160Z,35.50
2019-03-30T22:50:48.040Z,33.93
2019-03-30T22:53:19.250Z,35.63
2019-03-30T22:55:50.421Z,35.13
2019-03-30T22:58:21.550Z,38.23
2019-03-30T23:01:02.007Z,38.20
2019-03-30T23:03:32.152Z,38.23
2019-03-30T23:06:03.502Z,36.30
2019-03-30T23:08:34.194Z,38.40
2019-03-30T23:11:05.216Z,39.53
2019-03-30T23:13:38.959Z,40.03
2019-03-30T23:16:12.337Z,41.33
2019-03-30T23:18:49.152Z,43.80
2019-03-30T23:21:21.423Z,43.83
2019-03-30T23:23:57.187Z,45.57
2019-03-30T23:26:28.179Z,46.00
2019-03-30T23:29:01.921Z,48.00
2019-03-30T23:31:40.182Z,50.33
2019-03-30T23:34:10.937Z,51.37
2019-03-30T23:36:41.887Z,48.27
2019-03-30T23:39:12.290Z,65.90
2019-03-30T23:41:47.522Z,59.63
2019-03-30T23:44:24.320Z,53.03
2019-03-30T23:46:59.861Z,59.00
2019-03-30T23:49:36.826Z,56.90
2019-03-30T23:52:08.475Z,54.33
2019-03-30T23:54:43.860Z,51.07
2019-03-30T23:57:15.996Z,49.47
2019-03-30T23:59:46.934Z,51.50
